sensor_id;sensor_type;location;lat;lon;timestamp;P1;durP1;ratioP1;P2;durP2;ratioP2
2035;SDS011;23642;42.658;23.350;2023-05-10T00:01:58;61.20;;;57.50;;
2035;SDS011;23642;42.658;23.350;2023-05-10T00:04:25;59.87;;;56.27;;
2035;SDS011;23642;42.658;23.350;2023-05-10T00:06:54;59.53;;;56.03;;
2035;SDS011;23642;42.658;23.350;2023-05-10T00:09:23;60.90;;;57.20;;
2035;SDS011;23642;42.658;23.350;2023-05-10T00:11:50;60.60;;;56.80;;
2035;SDS011;23642;42.658;23.350;2023-05-10T00:14:17;61.10;;;57.40;;
2035;SDS011;23642;42.658;23.350;2023-05-10T00:16:44;60.87;;;56.97;;
2035;SDS011;23642;42.658;23.350;2023-05-10T00:19:11;61.20;;;57.50;;
2035;SDS011;23642;42.658;23.350;2023-05-10T00:21:38;64.00;;;60.20;;
2035;SDS011;23642;42.658;23.350;2023-05-10T00:24:07;62.87;;;59.17;;
2035;SDS011;23642;42.658;23.350;2023-05-10T00:26:34;64.67;;;60.87;;
2035;SDS011;23642;42.658;23.350;2023-05-10T00:29:01;65.23;;;61.33;;
2035;SDS011;23642;42.658;23.350;2023-05-10T00:31:29;65.83;;;61.93;;
2035;SDS011;23642;42.658;23.350;2023-05-10T00:33:56;66.67;;;62.67;;
2035;SDS011;23642;42.658;23.350;2023-05-10T00:36:23;64.30;;;60.40;;
2035;SDS011;23642;42.658;23.350;2023-05-10T00:38:51;65.50;;;61.60;;
2035;SDS011;23642;42.658;23.350;2023-05-10T00:41:24;66.40;;;62.47;;
2035;SDS011;23642;42.658;23.350;2023-05-10T00:43:53;65.50;;;61.50;;
2035;SDS011;23642;42.658;23.350;2023-05-10T00:46:21;67.70;;;63.70;;
2035;SDS011;23642;42.658;23.350;2023-05-10T00:48:48;67.13;;;63.13;;
2035;SDS011;23642;42.658;23.350;2023-05-10T00:51:15;68.17;;;63.97;;
2035;SDS011;23642;42.658;23.350;2023-05-10T00:53:43;65.90;;;61.80;;
2035;SDS011;23642;42.658;23.350;2023-05-10T00:56:11;68.70;;;64.50;;
2035;SDS011;23642;42.658;23.350;2023-05-10T00:58:40;64.30;;;60.40;;
2035;SDS011;23642;42.658;23.350;2023-05-10T01:01:09;69.07;;;64.50;;
2035;SDS011;23642;42.658;23.350;2023-05-10T01:03:37;68.30;;;64.00;;
2035;SDS011;23642;42.658;23.350;2023-05-10T01:06:06;67.60;;;63.50;;
2035;SDS011;23642;42.658;23.350;2023-05-10T01:08:39;67.53;;;63.20;;
2035;SDS011;23642;42.658;23.350;2023-05-10T01:11:07;67.70;;;63.50;;
2035;SDS011;23642;42.658;23.350;2023-05-10T01:13:34;68.07;;;63.87;;
2035;SDS011;23642;42.658;23.350;2023-05-10T01:16:13;69.57;;;65.07;;
2035;SDS011;23642;42.658;23.350;2023-05-10T01:18:40;68.97;;;64.67;;
2035;SDS011;23642;42.658;23.350;2023-05-10T01:21:14;68.27;;;63.77;;
2035;SDS011;23642;42.658;23.350;2023-05-10T01:23:56;68.73;;;64.63;;
2035;SDS011;23642;42.658;23.350;2023-05-10T01:27:15;72.30;;;67.90;;
2035;SDS011;23642;42.658;23.350;2023-05-10T01:30:06;72.77;;;68.30;;
2035;SDS011;23642;42.658;23.350;2023-05-10T01:32:47;73.13;;;68.70;;
2035;SDS011;23642;42.658;23.350;2023-05-10T01:35:21;69.37;;;65.13;;
2035;SDS011;23642;42.658;23.350;2023-05-10T01:37:56;67.07;;;62.97;;
2035;SDS011;23642;42.658;23.350;2023-05-10T01:40:37;67.83;;;63.63;;
2035;SDS011;23642;42.658;23.350;2023-05-10T01:43:11;68.13;;;63.93;;
2035;SDS011;23642;42.658;23.350;2023-05-10T01:45:47;70.23;;;66.03;;
2035;SDS011;23642;42.658;23.350;2023-05-10T01:48:27;70.30;;;65.93;;
2035;SDS011;23642;42.658;23.350;2023-05-10T01:50:56;69.53;;;65.33;;
2035;SDS011;23642;42.658;23.350;2023-05-10T01:53:26;70.73;;;66.43;;
2035;SDS011;23642;42.658;23.350;2023-05-10T01:55:54;72.97;;;68.37;;
2035;SDS011;23642;42.658;23.350;2023-05-10T01:58:23;74.10;;;69.23;;
2035;SDS011;23642;42.658;23.350;2023-05-10T02:00:55;74.20;;;69.50;;
2035;SDS011;23642;42.658;23.350;2023-05-10T02:03:27;74.83;;;69.80;;
2035;SDS011;23642;42.658;23.350;2023-05-10T02:05:57;72.67;;;68.03;;
2035;SDS011;23642;42.658;23.350;2023-05-10T02:08:28;74.20;;;69.60;;
2035;SDS011;23642;42.658;23.350;2023-05-10T02:10:58;73.80;;;69.20;;
2035;SDS011;23642;42.658;23.350;2023-05-10T02:13:30;75.03;;;70.33;;
2035;SDS011;23642;42.658;23.350;2023-05-10T02:16:01;80.40;;;75.33;;
2035;SDS011;23642;42.658;23.350;2023-05-10T02:18:31;82.27;;;77.07;;
2035;SDS011;23642;42.658;23.350;2023-05-10T02:21:00;83.13;;;77.80;;
2035;SDS011;23642;42.658;23.350;2023-05-10T02:23:34;85.13;;;79.73;;
2035;SDS011;23642;42.658;23.350;2023-05-10T02:26:02;83.43;;;78.07;;
2035;SDS011;23642;42.658;23.350;2023-05-10T02:28:32;87.47;;;81.87;;
2035;SDS011;23642;42.658;23.350;2023-05-10T02:31:01;87.70;;;82.10;;
2035;SDS011;23642;42.658;23.350;2023-05-10T02:33:28;86.57;;;80.97;;
2035;SDS011;23642;42.658;23.350;2023-05-10T02:35:58;87.90;;;82.13;;
2035;SDS011;23642;42.658;23.350;2023-05-10T02:38:27;87.43;;;81.83;;
2035;SDS011;23642;42.658;23.350;2023-05-10T02:40:59;89.80;;;83.90;;
2035;SDS011;23642;42.658;23.350;2023-05-10T02:43:26;90.60;;;84.57;;
2035;SDS011;23642;42.658;23.350;2023-05-10T02:46:03;93.07;;;87.13;;
2035;SDS011;23642;42.658;23.350;2023-05-10T02:48:41;90.07;;;84.10;;
2035;SDS011;23642;42.658;23.350;2023-05-10T02:51:08;93.67;;;87.47;;
2035;SDS011;23642;42.658;23.350;2023-05-10T02:53:38;93.40;;;87.03;;
2035;SDS011;23642;42.658;23.350;2023-05-10T02:56:10;92.70;;;86.30;;
2035;SDS011;23642;42.658;23.350;2023-05-10T02:58:40;89.80;;;83.90;;
2035;SDS011;23642;42.658;23.350;2023-05-10T03:01:07;89.40;;;83.30;;
2035;SDS011;23642;42.658;23.350;2023-05-10T03:03:36;91.13;;;85.03;;
2035;SDS011;23642;42.658;23.350;2023-05-10T03:06:06;87.93;;;82.00;;
2035;SDS011;23642;42.658;23.350;2023-05-10T03:08:37;85.70;;;79.90;;
2035;SDS011;23642;42.658;23.350;2023-05-10T03:11:09;89.20;;;83.13;;
2035;SDS011;23642;42.658;23.350;2023-05-10T03:13:48;88.50;;;82.50;;
2035;SDS011;23642;42.658;23.350;2023-05-10T03:16:29;89.80;;;83.80;;
2035;SDS011;23642;42.658;23.350;2023-05-10T03:19:05;90.10;;;84.00;;
2035;SDS011;23642;42.658;23.350;2023-05-10T03:21:40;88.57;;;82.57;;
2035;SDS011;23642;42.658;23.350;2023-05-10T03:24:09;90.00;;;83.70;;
2035;SDS011;23642;42.658;23.350;2023-05-10T03:26:40;92.93;;;86.63;;
2035;SDS011;23642;42.658;23.350;2023-05-10T03:29:09;89.30;;;83.30;;
2035;SDS011;23642;42.658;23.350;2023-05-10T03:31:37;89.40;;;83.40;;
2035;SDS011;23642;42.658;23.350;2023-05-10T03:34:05;88.23;;;82.23;;
2035;SDS011;23642;42.658;23.350;2023-05-10T03:36:34;90.97;;;84.77;;
2035;SDS011;23642;42.658;23.350;2023-05-10T03:39:02;88.40;;;82.40;;
2035;SDS011;23642;42.658;23.350;2023-05-10T03:41:34;87.80;;;81.80;;
2035;SDS011;23642;42.658;23.350;2023-05-10T03:44:01;89.83;;;83.53;;
2035;SDS011;23642;42.658;23.350;2023-05-10T03:46:28;89.70;;;83.57;;
2035;SDS011;23642;42.658;23.350;2023-05-10T03:48:57;92.30;;;85.90;;
2035;SDS011;23642;42.658;23.350;2023-05-10T03:51:24;91.00;;;84.60;;
2035;SDS011;23642;42.658;23.350;2023-05-10T03:53:55;95.30;;;88.70;;
2035;SDS011;23642;42.658;23.350;2023-05-10T03:56:24;92.17;;;85.43;;
2035;SDS011;23642;42.658;23.350;2023-05-10T03:58:53;92.27;;;85.97;;
2035;SDS011;23642;42.658;23.350;2023-05-10T04:01:20;92.50;;;86.20;;
2035;SDS011;23642;42.658;23.350;2023-05-10T04:03:46;95.43;;;88.73;;
2035;SDS011;23642;42.658;23.350;2023-05-10T04:06:13;93.93;;;87.43;;
2035;SDS011;23642;42.658;23.350;2023-05-10T04:08:42;95.40;;;88.80;;
2035;SDS011;23642;42.658;23.350;2023-05-10T04:11:10;93.00;;;86.60;;
2035;SDS011;23642;42.658;23.350;2023-05-10T04:13:44;94.17;;;87.57;;
2035;SDS011;23642;42.658;23.350;2023-05-10T04:16:11;94.20;;;87.80;;
2035;SDS011;23642;42.658;23.350;2023-05-10T04:18:40;90.40;;;84.30;;
2035;SDS011;23642;42.658;23.350;2023-05-10T04:21:11;91.70;;;85.50;;
2035;SDS011;23642;42.658;23.350;2023-05-10T04:23:38;92.70;;;86.20;;
2035;SDS011;23642;42.658;23.350;2023-05-10T04:26:06;92.50;;;86.20;;
2035;SDS011;23642;42.658;23.350;2023-05-10T04:28:33;91.50;;;85.30;;
2035;SDS011;23642;42.658;23.350;2023-05-10T04:31:04;91.77;;;85.53;;
2035;SDS011;23642;42.658;23.350;2023-05-10T04:33:35;91.40;;;85.20;;
2035;SDS011;23642;42.658;23.350;2023-05-10T04:36:04;91.67;;;85.37;;
2035;SDS011;23642;42.658;23.350;2023-05-10T04:38:31;92.07;;;85.70;;
2035;SDS011;23642;42.658;23.350;2023-05-10T04:41:04;90.77;;;84.60;;
2035;SDS011;23642;42.658;23.350;2023-05-10T04:43:35;86.80;;;80.80;;
2035;SDS011;23642;42.658;23.350;2023-05-10T04:46:04;84.57;;;78.60;;
2035;SDS011;23642;42.658;23.350;2023-05-10T04:48:32;86.73;;;80.47;;
2035;SDS011;23642;42.658;23.350;2023-05-10T04:50:59;87.70;;;81.20;;
2035;SDS011;23642;42.658;23.350;2023-05-10T04:53:33;84.97;;;78.97;;
2035;SDS011;23642;42.658;23.350;2023-05-10T04:56:01;86.57;;;80.33;;
2035;SDS011;23642;42.658;23.350;2023-05-10T04:58:46;85.93;;;80.17;;
2035;SDS011;23642;42.658;23.350;2023-05-10T05:01:15;87.20;;;81.20;;
2035;SDS011;23642;42.658;23.350;2023-05-10T05:03:42;84.27;;;78.47;;
2035;SDS011;23642;42.658;23.350;2023-05-10T05:06:12;86.40;;;80.50;;
2035;SDS011;23642;42.658;23.350;2023-05-10T05:08:39;84.93;;;78.97;;
2035;SDS011;23642;42.658;23.350;2023-05-10T05:11:09;85.97;;;80.07;;
2035;SDS011;23642;42.658;23.350;2023-05-10T05:13:37;86.00;;;80.23;;
2035;SDS011;23642;42.658;23.350;2023-05-10T05:16:05;86.37;;;80.30;;
2035;SDS011;23642;42.658;23.350;2023-05-10T05:18:34;87.03;;;80.90;;
2035;SDS011;23642;42.658;23.350;2023-05-10T05:21:01;84.93;;;79.13;;
2035;SDS011;23642;42.658;23.350;2023-05-10T05:23:28;86.87;;;80.97;;
2035;SDS011;23642;42.658;23.350;2023-05-10T05:25:55;89.30;;;83.20;;
2035;SDS011;23642;42.658;23.350;2023-05-10T05:28:22;86.50;;;80.70;;
2035;SDS011;23642;42.658;23.350;2023-05-10T05:30:49;86.67;;;80.77;;
2035;SDS011;23642;42.658;23.350;2023-05-10T05:33:20;86.93;;;80.83;;
2035;SDS011;23642;42.658;23.350;2023-05-10T05:35:53;86.93;;;81.03;;
2035;SDS011;23642;42.658;23.350;2023-05-10T05:38:23;85.97;;;80.17;;
2035;SDS011;23642;42.658;23.350;2023-05-10T05:40:50;86.10;;;80.00;;
2035;SDS011;23642;42.658;23.350;2023-05-10T05:43:18;84.97;;;79.07;;
2035;SDS011;23642;42.658;23.350;2023-05-10T05:45:47;84.97;;;79.07;;
2035;SDS011;23642;42.658;23.350;2023-05-10T05:48:14;86.97;;;80.90;;
2035;SDS011;23642;42.658;23.350;2023-05-10T05:50:45;85.70;;;79.90;;
2035;SDS011;23642;42.658;23.350;2023-05-10T05:53:14;84.80;;;79.00;;
2035;SDS011;23642;42.658;23.350;2023-05-10T05:55:50;84.13;;;78.37;;
2035;SDS011;23642;42.658;23.350;2023-05-10T05:58:18;86.23;;;80.27;;
2035;SDS011;23642;42.658;23.350;2023-05-10T06:00:45;88.87;;;82.57;;
2035;SDS011;23642;42.658;23.350;2023-05-10T06:03:18;88.23;;;82.03;;
2035;SDS011;23642;42.658;23.350;2023-05-10T06:05:46;87.83;;;81.80;;
2035;SDS011;23642;42.658;23.350;2023-05-10T06:08:14;89.40;;;83.20;;
2035;SDS011;23642;42.658;23.350;2023-05-10T06:10:47;85.50;;;79.60;;
2035;SDS011;23642;42.658;23.350;2023-05-10T06:13:23;91.77;;;85.50;;
2035;SDS011;23642;42.658;23.350;2023-05-10T06:16:03;92.73;;;86.13;;
2035;SDS011;23642;42.658;23.350;2023-05-10T06:18:43;93.00;;;86.30;;
2035;SDS011;23642;42.658;23.350;2023-05-10T06:21:19;89.63;;;83.40;;
2035;SDS011;23642;42.658;23.350;2023-05-10T06:24:02;88.83;;;82.57;;
2035;SDS011;23642;42.658;23.350;2023-05-10T06:26:47;86.57;;;80.13;;
2035;SDS011;23642;42.658;23.350;2023-05-10T06:30:27;86.83;;;80.73;;
2035;SDS011;23642;42.658;23.350;2023-05-10T06:32:36;93.20;;;86.77;;
2035;SDS011;23642;42.658;23.350;2023-05-10T06:35:21;90.77;;;84.57;;
2035;SDS011;23642;42.658;23.350;2023-05-10T06:38:03;90.97;;;84.67;;
2035;SDS011;23642;42.658;23.350;2023-05-10T06:46:32;92.00;;;85.60;;
2035;SDS011;23642;42.658;23.350;2023-05-10T06:52:18;93.60;;;87.10;;
2035;SDS011;23642;42.658;23.350;2023-05-10T06:55:20;94.00;;;87.50;;
2035;SDS011;23642;42.658;23.350;2023-05-10T06:58:14;93.50;;;86.50;;
2035;SDS011;23642;42.658;23.350;2023-05-10T07:00:46;93.60;;;86.87;;
2035;SDS011;23642;42.658;23.350;2023-05-10T07:03:27;96.20;;;89.30;;
2035;SDS011;23642;42.658;23.350;2023-05-10T07:06:20;93.17;;;86.67;;
2035;SDS011;23642;42.658;23.350;2023-05-10T07:09:11;95.23;;;88.93;;
2035;SDS011;23642;42.658;23.350;2023-05-10T07:12:12;97.17;;;90.23;;
2035;SDS011;23642;42.658;23.350;2023-05-10T07:15:22;96.47;;;89.57;;
2035;SDS011;23642;42.658;23.350;2023-05-10T07:18:31;92.50;;;86.10;;
2035;SDS011;23642;42.658;23.350;2023-05-10T07:24:16;92.63;;;86.43;;
2035;SDS011;23642;42.658;23.350;2023-05-10T07:36:45;99.90;;;93.03;;
2035;SDS011;23642;42.658;23.350;2023-05-10T07:39:16;100.50;;;93.70;;
2035;SDS011;23642;42.658;23.350;2023-05-10T07:41:45;100.23;;;93.40;;
2035;SDS011;23642;42.658;23.350;2023-05-10T07:44:26;96.60;;;89.60;;
2035;SDS011;23642;42.658;23.350;2023-05-10T07:46:56;95.83;;;88.83;;
2035;SDS011;23642;42.658;23.350;2023-05-10T07:49:43;99.57;;;92.67;;
2035;SDS011;23642;42.658;23.350;2023-05-10T07:52:13;98.43;;;91.93;;
2035;SDS011;23642;42.658;23.350;2023-05-10T07:55:06;100.63;;;93.37;;
2035;SDS011;23642;42.658;23.350;2023-05-10T07:57:54;95.47;;;88.87;;
2035;SDS011;23642;42.658;23.350;2023-05-10T08:01:17;96.70;;;90.00;;
2035;SDS011;23642;42.658;23.350;2023-05-10T08:03:38;96.73;;;90.00;;
2035;SDS011;23642;42.658;23.350;2023-05-10T08:13:05;100.77;;;93.30;;
2035;SDS011;23642;42.658;23.350;2023-05-10T08:15:56;98.00;;;91.00;;
2035;SDS011;23642;42.658;23.350;2023-05-10T08:18:30;100.33;;;92.97;;
2035;SDS011;23642;42.658;23.350;2023-05-10T08:24:33;100.10;;;93.10;;
2035;SDS011;23642;42.658;23.350;2023-05-10T08:27:11;102.27;;;95.03;;
2035;SDS011;23642;42.658;23.350;2023-05-10T08:33:10;102.27;;;95.37;;
2035;SDS011;23642;42.658;23.350;2023-05-10T08:35:53;102.93;;;95.57;;
2035;SDS011;23642;42.658;23.350;2023-05-10T08:42:38;99.80;;;93.00;;
2035;SDS011;23642;42.658;23.350;2023-05-10T08:46:03;102.83;;;95.93;;
2035;SDS011;23642;42.658;23.350;2023-05-10T08:55:15;101.03;;;93.97;;
2035;SDS011;23642;42.658;23.350;2023-05-10T08:58:10;100.73;;;93.70;;
2035;SDS011;23642;42.658;23.350;2023-05-10T09:01:19;102.90;;;96.00;;
2035;SDS011;23642;42.658;23.350;2023-05-10T09:04:06;105.50;;;98.17;;
2035;SDS011;23642;42.658;23.350;2023-05-10T09:10:06;104.53;;;97.43;;
2035;SDS011;23642;42.658;23.350;2023-05-10T09:12:45;102.73;;;95.80;;
2035;SDS011;23642;42.658;23.350;2023-05-10T09:15:32;104.20;;;96.90;;
2035;SDS011;23642;42.658;23.350;2023-05-10T09:19:39;103.03;;;96.13;;
2035;SDS011;23642;42.658;23.350;2023-05-10T09:21:53;103.23;;;96.33;;
2035;SDS011;23642;42.658;23.350;2023-05-10T09:24:34;101.43;;;94.43;;
2035;SDS011;23642;42.658;23.350;2023-05-10T09:27:02;103.87;;;96.57;;
2035;SDS011;23642;42.658;23.350;2023-05-10T09:29:59;101.77;;;94.87;;
2035;SDS011;23642;42.658;23.350;2023-05-10T09:32:39;103.33;;;96.53;;
2035;SDS011;23642;42.658;23.350;2023-05-10T09:35:27;102.90;;;96.10;;
2035;SDS011;23642;42.658;23.350;2023-05-10T09:38:27;105.70;;;98.70;;
2035;SDS011;23642;42.658;23.350;2023-05-10T09:41:25;104.07;;;97.27;;
2035;SDS011;23642;42.658;23.350;2023-05-10T10:01:52;105.70;;;98.83;;
2035;SDS011;23642;42.658;23.350;2023-05-10T10:08:37;109.10;;;101.80;;
2035;SDS011;23642;42.658;23.350;2023-05-10T10:17:45;104.13;;;97.23;;
2035;SDS011;23642;42.658;23.350;2023-05-10T10:21:08;104.90;;;97.67;;
2035;SDS011;23642;42.658;23.350;2023-05-10T10:24:34;103.87;;;96.73;;
2035;SDS011;23642;42.658;23.350;2023-05-10T10:27:47;105.67;;;98.50;;
2035;SDS011;23642;42.658;23.350;2023-05-10T10:35:29;104.33;;;97.20;;
2035;SDS011;23642;42.658;23.350;2023-05-10T10:41:29;104.90;;;97.90;;
2035;SDS011;23642;42.658;23.350;2023-05-10T10:44:58;104.80;;;97.87;;
2035;SDS011;23642;42.658;23.350;2023-05-10T10:48:32;104.67;;;97.60;;
2035;SDS011;23642;42.658;23.350;2023-05-10T10:54:20;105.77;;;98.87;;
2035;SDS011;23642;42.658;23.350;2023-05-10T10:55:04;106.40;;;99.00;;
2035;SDS011;23642;42.658;23.350;2023-05-10T11:11:26;102.67;;;95.83;;
2035;SDS011;23642;42.658;23.350;2023-05-10T11:30:54;106.03;;;99.13;;
2035;SDS011;23642;42.658;23.350;2023-05-10T11:33:44;105.97;;;98.83;;
2035;SDS011;23642;42.658;23.350;2023-05-10T11:36:35;104.70;;;97.97;;
2035;SDS011;23642;42.658;23.350;2023-05-10T11:39:04;104.70;;;97.67;;
2035;SDS011;23642;42.658;23.350;2023-05-10T11:45:40;104.70;;;97.87;;
2035;SDS011;23642;42.658;23.350;2023-05-10T11:52:05;100.80;;;94.30;;
2035;SDS011;23642;42.658;23.350;2023-05-10T11:54:54;105.80;;;98.57;;
2035;SDS011;23642;42.658;23.350;2023-05-10T11:58:25;105.67;;;98.67;;
2035;SDS011;23642;42.658;23.350;2023-05-10T12:01:33;103.97;;;96.93;;
2035;SDS011;23642;42.658;23.350;2023-05-10T12:11:25;105.77;;;98.67;;
2035;SDS011;23642;42.658;23.350;2023-05-10T12:14:19;107.63;;;100.73;;
2035;SDS011;23642;42.658;23.350;2023-05-10T12:17:02;109.53;;;102.53;;
2035;SDS011;23642;42.658;23.350;2023-05-10T12:20:12;105.87;;;99.07;;
2035;SDS011;23642;42.658;23.350;2023-05-10T12:30:36;110.50;;;103.37;;
2035;SDS011;23642;42.658;23.350;2023-05-10T12:36:55;116.03;;;108.30;;
2035;SDS011;23642;42.658;23.350;2023-05-10T12:39:49;110.90;;;103.60;;
2035;SDS011;23642;42.658;23.350;2023-05-10T12:42:48;114.33;;;106.93;;
2035;SDS011;23642;42.658;23.350;2023-05-10T12:58:27;114.97;;;107.67;;
2035;SDS011;23642;42.658;23.350;2023-05-10T13:21:17;109.37;;;102.07;;
2035;SDS011;23642;42.658;23.350;2023-05-10T13:27:19;108.07;;;100.97;;
2035;SDS011;23642;42.658;23.350;2023-05-10T13:55:35;109.10;;;101.93;;
2035;SDS011;23642;42.658;23.350;2023-05-10T13:58:19;109.50;;;101.97;;
2035;SDS011;23642;42.658;23.350;2023-05-10T14:01:07;106.93;;;99.23;;
2035;SDS011;23642;42.658;23.350;2023-05-10T14:04:01;107.40;;;100.37;;
2035;SDS011;23642;42.658;23.350;2023-05-10T14:06:57;109.10;;;101.70;;
2035;SDS011;23642;42.658;23.350;2023-05-10T14:13:24;106.60;;;98.80;;
2035;SDS011;23642;42.658;23.350;2023-05-10T14:16:41;104.63;;;97.43;;
2035;SDS011;23642;42.658;23.350;2023-05-10T14:19:38;106.37;;;98.93;;
2035;SDS011;23642;42.658;23.350;2023-05-10T14:22:42;104.37;;;97.37;;
2035;SDS011;23642;42.658;23.350;2023-05-10T14:25:58;106.77;;;99.47;;
2035;SDS011;23642;42.658;23.350;2023-05-10T14:29:26;106.27;;;99.27;;
2035;SDS011;23642;42.658;23.350;2023-05-10T14:33:35;105.97;;;98.87;;
2035;SDS011;23642;42.658;23.350;2023-05-10T14:36:16;103.87;;;96.70;;
2035;SDS011;23642;42.658;23.350;2023-05-10T14:39:19;107.53;;;100.53;;
2035;SDS011;23642;42.658;23.350;2023-05-10T14:42:12;101.03;;;94.23;;
2035;SDS011;23642;42.658;23.350;2023-05-10T14:44:57;103.20;;;96.00;;
2035;SDS011;23642;42.658;23.350;2023-05-10T14:47:59;100.73;;;93.93;;
2035;SDS011;23642;42.658;23.350;2023-05-10T14:51:35;100.73;;;93.77;;
2035;SDS011;23642;42.658;23.350;2023-05-10T14:53:23;100.73;;;93.13;;
2035;SDS011;23642;42.658;23.350;2023-05-10T14:56:02;101.57;;;94.70;;
2035;SDS011;23642;42.658;23.350;2023-05-10T14:58:55;101.20;;;94.30;;
2035;SDS011;23642;42.658;23.350;2023-05-10T15:01:27;100.93;;;94.13;;
2035;SDS011;23642;42.658;23.350;2023-05-10T15:04:28;101.27;;;94.30;;
2035;SDS011;23642;42.658;23.350;2023-05-10T15:10:15;102.40;;;95.30;;
2035;SDS011;23642;42.658;23.350;2023-05-10T15:13:06;100.27;;;93.30;;
2035;SDS011;23642;42.658;23.350;2023-05-10T15:23:11;98.73;;;92.03;;
2035;SDS011;23642;42.658;23.350;2023-05-10T15:28:40;100.53;;;93.40;;
2035;SDS011;23642;42.658;23.350;2023-05-10T15:34:38;98.90;;;91.97;;
2035;SDS011;23642;42.658;23.350;2023-05-10T15:37:27;100.47;;;93.13;;
2035;SDS011;23642;42.658;23.350;2023-05-10T15:40:11;101.00;;;94.00;;
2035;SDS011;23642;42.658;23.350;2023-05-10T15:45:52;99.27;;;92.40;;
2035;SDS011;23642;42.658;23.350;2023-05-10T15:48:48;98.63;;;91.77;;
2035;SDS011;23642;42.658;23.350;2023-05-10T15:51:30;99.60;;;92.73;;
2035;SDS011;23642;42.658;23.350;2023-05-10T15:54:16;100.80;;;93.40;;
2035;SDS011;23642;42.658;23.350;2023-05-10T15:57:09;100.70;;;93.50;;
2035;SDS011;23642;42.658;23.350;2023-05-10T15:59:56;100.30;;;93.40;;
2035;SDS011;23642;42.658;23.350;2023-05-10T16:02:45;99.03;;;92.30;;
2035;SDS011;23642;42.658;23.350;2023-05-10T16:08:45;100.20;;;93.17;;
2035;SDS011;23642;42.658;23.350;2023-05-10T16:11:20;99.23;;;92.00;;
2035;SDS011;23642;42.658;23.350;2023-05-10T16:13:55;99.13;;;92.03;;
2035;SDS011;23642;42.658;23.350;2023-05-10T16:16:36;100.67;;;93.77;;
2035;SDS011;23642;42.658;23.350;2023-05-10T16:20:29;98.80;;;91.80;;
2035;SDS011;23642;42.658;23.350;2023-05-10T16:26:12;102.20;;;95.30;;
2035;SDS011;23642;42.658;23.350;2023-05-10T16:28:54;103.10;;;96.10;;
2035;SDS011;23642;42.658;23.350;2023-05-10T16:31:22;100.07;;;93.17;;
2035;SDS011;23642;42.658;23.350;2023-05-10T16:34:11;100.07;;;93.17;;
2035;SDS011;23642;42.658;23.350;2023-05-10T16:36:52;100.00;;;92.53;;
2035;SDS011;23642;42.658;23.350;2023-05-10T16:39:28;99.13;;;91.90;;
2035;SDS011;23642;42.658;23.350;2023-05-10T16:42:08;99.20;;;92.50;;
2035;SDS011;23642;42.658;23.350;2023-05-10T16:44:35;98.47;;;91.50;;
2035;SDS011;23642;42.658;23.350;2023-05-10T16:47:11;100.80;;;93.90;;
2035;SDS011;23642;42.658;23.350;2023-05-10T16:49:48;101.70;;;94.10;;
2035;SDS011;23642;42.658;23.350;2023-05-10T16:52:18;99.90;;;93.00;;
2035;SDS011;23642;42.658;23.350;2023-05-10T16:55:14;100.20;;;93.13;;
2035;SDS011;23642;42.658;23.350;2023-05-10T16:57:53;101.37;;;94.20;;
2035;SDS011;23642;42.658;23.350;2023-05-10T17:00:27;100.20;;;93.17;;
2035;SDS011;23642;42.658;23.350;2023-05-10T17:03:03;101.03;;;94.07;;
2035;SDS011;23642;42.658;23.350;2023-05-10T17:05:43;99.60;;;92.60;;
2035;SDS011;23642;42.658;23.350;2023-05-10T17:08:12;99.20;;;92.60;;
2035;SDS011;23642;42.658;23.350;2023-05-10T17:10:42;99.67;;;92.57;;
2035;SDS011;23642;42.658;23.350;2023-05-10T17:16:24;99.77;;;93.10;;
2035;SDS011;23642;42.658;23.350;2023-05-10T17:19:18;96.63;;;89.93;;
2035;SDS011;23642;42.658;23.350;2023-05-10T17:22:09;98.83;;;92.17;;
2035;SDS011;23642;42.658;23.350;2023-05-10T17:25:08;97.80;;;90.93;;
2035;SDS011;23642;42.658;23.350;2023-05-10T17:27:37;101.00;;;94.10;;
2035;SDS011;23642;42.658;23.350;2023-05-10T17:30:16;99.47;;;92.97;;
2035;SDS011;23642;42.658;23.350;2023-05-10T17:32:51;101.03;;;94.00;;
2035;SDS011;23642;42.658;23.350;2023-05-10T17:35:28;100.07;;;92.83;;
2035;SDS011;23642;42.658;23.350;2023-05-10T17:38:14;98.70;;;92.13;;
2035;SDS011;23642;42.658;23.350;2023-05-10T17:40:48;99.17;;;92.03;;
2035;SDS011;23642;42.658;23.350;2023-05-10T17:43:25;100.17;;;93.37;;
2035;SDS011;23642;42.658;23.350;2023-05-10T17:46:09;98.60;;;91.83;;
2035;SDS011;23642;42.658;23.350;2023-05-10T17:48:44;99.03;;;92.13;;
2035;SDS011;23642;42.658;23.350;2023-05-10T17:51:11;96.73;;;89.50;;
2035;SDS011;23642;42.658;23.350;2023-05-10T17:53:40;98.43;;;91.83;;
2035;SDS011;23642;42.658;23.350;2023-05-10T17:56:09;99.87;;;93.07;;
2035;SDS011;23642;42.658;23.350;2023-05-10T17:58:48;99.13;;;92.30;;
2035;SDS011;23642;42.658;23.350;2023-05-10T18:04:33;99.53;;;92.63;;
2035;SDS011;23642;42.658;23.350;2023-05-10T18:07:08;100.47;;;93.33;;
2035;SDS011;23642;42.658;23.350;2023-05-10T18:09:46;99.80;;;93.10;;
2035;SDS011;23642;42.658;23.350;2023-05-10T18:12:21;99.50;;;92.43;;
2035;SDS011;23642;42.658;23.350;2023-05-10T18:14:52;99.27;;;92.70;;
2035;SDS011;23642;42.658;23.350;2023-05-10T18:20:17;97.00;;;90.60;;
2035;SDS011;23642;42.658;23.350;2023-05-10T18:22:50;96.63;;;90.17;;
2035;SDS011;23642;42.658;23.350;2023-05-10T18:25:20;100.40;;;93.80;;
2035;SDS011;23642;42.658;23.350;2023-05-10T18:27:50;97.97;;;91.33;;
2035;SDS011;23642;42.658;23.350;2023-05-10T18:30:33;97.77;;;91.30;;
2035;SDS011;23642;42.658;23.350;2023-05-10T18:33:08;100.40;;;93.70;;
2035;SDS011;23642;42.658;23.350;2023-05-10T18:35:54;100.67;;;93.77;;
2035;SDS011;23642;42.658;23.350;2023-05-10T18:38:24;101.40;;;94.60;;
2035;SDS011;23642;42.658;23.350;2023-05-10T18:44:14;101.00;;;94.30;;
2035;SDS011;23642;42.658;23.350;2023-05-10T18:47:07;100.43;;;93.57;;
2035;SDS011;23642;42.658;23.350;2023-05-10T18:49:50;99.87;;;92.60;;
2035;SDS011;23642;42.658;23.350;2023-05-10T18:52:21;98.57;;;91.87;;
2035;SDS011;23642;42.658;23.350;2023-05-10T18:55:19;99.57;;;92.80;;
2035;SDS011;23642;42.658;23.350;2023-05-10T18:58:06;98.37;;;91.57;;
2035;SDS011;23642;42.658;23.350;2023-05-10T19:03:36;99.27;;;92.67;;
2035;SDS011;23642;42.658;23.350;2023-05-10T19:06:05;102.10;;;95.10;;
2035;SDS011;23642;42.658;23.350;2023-05-10T19:08:58;99.87;;;93.17;;
2035;SDS011;23642;42.658;23.350;2023-05-10T19:11:32;101.40;;;94.20;;
2035;SDS011;23642;42.658;23.350;2023-05-10T19:16:44;101.50;;;94.80;;
2035;SDS011;23642;42.658;23.350;2023-05-10T19:19:29;99.97;;;93.37;;
2035;SDS011;23642;42.658;23.350;2023-05-10T19:22:03;100.53;;;93.90;;
2035;SDS011;23642;42.658;23.350;2023-05-10T19:24:39;101.30;;;94.30;;
2035;SDS011;23642;42.658;23.350;2023-05-10T19:27:31;99.50;;;92.87;;
2035;SDS011;23642;42.658;23.350;2023-05-10T19:30:21;99.33;;;92.23;;
2035;SDS011;23642;42.658;23.350;2023-05-10T19:32:59;98.60;;;91.77;;
2035;SDS011;23642;42.658;23.350;2023-05-10T19:35:44;99.33;;;92.70;;
2035;SDS011;23642;42.658;23.350;2023-05-10T19:38:32;99.90;;;92.97;;
2035;SDS011;23642;42.658;23.350;2023-05-10T19:43:52;99.83;;;93.23;;